Time;durP1;ratioP1;P1;durP2;ratioP2;P2;SDS_P1;SDS_P2;PMS_P1;PMS_P2;Temp;Humidity;BMP_temperature;BMP_pressure;BME280_temperature;BME280_humidity;BME280_pressure;Samples;Min_cycle;Max_cycle;Signal;HPM_P1;HPM_P2
2021/08/10 00:02:08;;;;;;;1.98;0.20;;;14.70;99.90;;;;;;5095572;28;20012;-76
2021/08/10 00:04:33;;;;;;;4.32;0.10;;;14.70;99.90;;;;;;5096058;28;20020;-76
2021/08/10 00:06:59;;;;;;;2.13;0.30;;;14.70;99.90;;;;;;5077405;28;20024;-76
2021/08/10 00:09:25;;;;;;;4.03;0.30;;;14.80;99.90;;;;;;5095440;28;20020;-76
2021/08/10 00:11:51;;;;;;;4.88;0.85;;;14.80;99.90;;;;;;5077123;28;20024;-76
2021/08/10 00:14:16;;;;;;;2.35;0.30;;;14.80;99.90;;;;;;5095299;28;20543;-76
2021/08/10 00:16:42;;;;;;;6.82;0.25;;;14.80;99.90;;;;;;5095764;28;20016;-76
2021/08/10 00:19:08;;;;;;;2.95;0.10;;;14.80;99.90;;;;;;5077081;28;20474;-76
2021/08/10 00:21:35;;;;;;;3.10;0.45;;;14.80;99.90;;;;;;5095201;28;20025;-77
2021/08/10 00:24:00;;;;;;;4.97;0.30;;;14.80;99.90;;;;;;5077181;28;20063;-77
2021/08/10 00:26:26;;;;;;;1.10;0.20;;;14.90;99.90;;;;;;5077021;28;20028;-77
2021/08/10 00:28:52;;;;;;;5.05;1.00;;;14.80;99.90;;;;;;5095694;28;20024;-77
2021/08/10 00:31:18;;;;;;;4.28;0.32;;;14.80;99.90;;;;;;5077952;28;20111;-78
2021/08/10 00:33:43;;;;;;;5.13;0.25;;;14.80;99.90;;;;;;5096538;28;20024;-76
2021/08/10 00:36:12;;;;;;;2.15;0.32;;;14.80;99.90;;;;;;5094964;28;20028;-80
2021/08/10 00:38:38;;;;;;;4.32;0.38;;;14.80;99.90;;;;;;5077497;28;20013;-80
2021/08/10 00:41:04;;;;;;;7.90;0.85;;;14.80;99.90;;;;;;5076960;28;20028;-80
2021/08/10 00:43:33;;;;;;;3.50;0.57;;;14.80;99.90;;;;;;5077582;28;20012;-80
2021/08/10 00:45:59;;;;;;;3.15;0.45;;;14.80;99.90;;;;;;5076931;28;20020;-80
2021/08/10 00:48:25;;;;;;;1.88;0.45;;;14.80;99.90;;;;;;5077061;28;20477;-80
2021/08/10 00:50:50;;;;;;;5.18;0.38;;;14.90;99.90;;;;;;5076721;28;20024;-80
2021/08/10 00:53:17;;;;;;;3.67;1.40;;;14.90;99.90;;;;;;5076965;28;20026;-78
2021/08/10 00:55:42;;;;;;;3.00;0.93;;;14.90;99.90;;;;;;5076611;28;20558;-78
2021/08/10 00:58:09;;;;;;;3.78;0.50;;;14.90;99.90;;;;;;5094866;28;20021;-79
2021/08/10 01:00:35;;;;;;;3.85;0.80;;;14.90;99.90;;;;;;5076471;28;20107;-77
2021/08/10 01:03:00;;;;;;;10.13;0.80;;;15.00;99.90;;;;;;5094805;28;20048;-80
2021/08/10 01:05:30;;;;;;;2.20;0.60;;;15.00;99.90;;;;;;5077131;28;20103;-80
2021/08/10 01:08:15;;;;;;;1.08;0.40;;;15.80;99.90;;;;;;5077159;28;20110;-80
2021/08/10 01:11:11;;;;;;;3.55;0.80;;;15.00;99.90;;;;;;5076628;28;20105;-78
2021/08/10 01:13:57;;;;;;;2.78;0.77;;;14.90;99.90;;;;;;5093716;28;20032;-76
2021/08/10 01:16:48;;;;;;;9.00;1.33;;;15.00;99.90;;;;;;5094918;28;20036;-76
2021/08/10 01:19:44;;;;;;;1.73;0.93;;;14.90;99.90;;;;;;5094127;28;20016;-76
2021/08/10 01:22:13;;;;;;;5.50;1.30;;;14.90;99.90;;;;;;5093898;28;20031;-76
2021/08/10 01:25:04;;;;;;;3.33;1.02;;;14.90;99.90;;;;;;5076464;28;20020;-77
2021/08/10 01:28:07;;;;;;;5.32;1.15;;;14.90;99.90;;;;;;5053196;28;20039;-78
2021/08/10 01:30:41;;;;;;;4.13;1.60;;;15.00;99.90;;;;;;5094218;28;20413;-76
2021/08/10 01:33:07;;;;;;;11.70;1.58;;;15.00;99.90;;;;;;5094477;28;20020;-77
2021/08/10 01:35:35;;;;;;;3.30;1.65;;;14.90;99.90;;;;;;5075861;28;20040;-77
2021/08/10 01:38:02;;;;;;;6.82;0.85;;;14.90;99.90;;;;;;5093767;28;20470;-77
2021/08/10 01:40:29;;;;;;;3.47;1.17;;;14.90;99.90;;;;;;5093693;28;20059;-77
2021/08/10 01:42:59;;;;;;;4.50;1.17;;;14.90;99.90;;;;;;5075816;28;20024;-78
2021/08/10 01:45:25;;;;;;;3.20;1.58;;;15.00;99.90;;;;;;5094266;28;20016;-76
2021/08/10 01:47:53;;;;;;;3.30;1.17;;;14.90;99.90;;;;;;5093173;28;20036;-76
2021/08/10 01:50:22;;;;;;;2.58;1.08;;;14.90;99.90;;;;;;5094510;28;20035;-78
2021/08/10 01:52:49;;;;;;;2.30;0.70;;;14.90;99.90;;;;;;5075774;28;20397;-78
2021/08/10 01:55:18;;;;;;;4.57;1.00;;;15.00;99.90;;;;;;5093799;28;20024;-78
2021/08/10 01:57:44;;;;;;;2.90;0.90;;;14.90;99.90;;;;;;5076343;28;20024;-78
2021/08/10 02:00:11;;;;;;;3.78;0.93;;;15.00;99.90;;;;;;5094341;28;20020;-78
2021/08/10 02:02:36;;;;;;;6.45;0.82;;;15.00;99.90;;;;;;5094098;28;20029;-78
2021/08/10 02:05:03;;;;;;;2.35;0.73;;;15.00;99.90;;;;;;5094581;28;20047;-78
2021/08/10 02:07:29;;;;;;;5.30;1.13;;;15.00;99.90;;;;;;5094318;28;20470;-76
2021/08/10 02:09:55;;;;;;;3.83;1.48;;;15.00;99.90;;;;;;5075531;28;20543;-76
2021/08/10 02:12:22;;;;;;;5.45;1.20;;;15.00;99.90;;;;;;5093285;28;20525;-76
2021/08/10 02:14:48;;;;;;;4.88;1.23;;;14.90;99.90;;;;;;5075234;28;20028;-76
2021/08/10 02:17:16;;;;;;;4.25;1.40;;;14.90;99.90;;;;;;5093183;28;20490;-76
2021/08/10 02:19:43;;;;;;;8.63;1.40;;;14.80;99.90;;;;;;5075206;28;20055;-76
2021/08/10 02:22:11;;;;;;;7.93;1.05;;;14.80;99.90;;;;;;5093163;28;20028;-76
2021/08/10 02:24:55;;;;;;;5.15;1.35;;;14.80;99.90;;;;;;5075223;28;20052;-77
2021/08/10 02:27:35;;;;;;;5.10;1.10;;;14.80;99.90;;;;;;5093550;28;20027;-78
2021/08/10 02:30:06;;;;;;;3.10;0.77;;;14.80;99.90;;;;;;5075686;28;20048;-78
2021/08/10 02:32:33;;;;;;;5.78;1.23;;;14.80;99.90;;;;;;5093521;28;20099;-76
2021/08/10 02:35:00;;;;;;;4.00;1.48;;;14.80;99.90;;;;;;5093108;28;20021;-76
2021/08/10 02:37:26;;;;;;;2.03;1.17;;;14.80;99.90;;;;;;5093823;28;20081;-78
2021/08/10 02:39:53;;;;;;;2.33;1.13;;;14.80;99.90;;;;;;5093437;28;20065;-80
2021/08/10 02:42:23;;;;;;;4.53;1.10;;;14.80;99.90;;;;;;5093574;28;20047;-80
2021/08/10 02:44:51;;;;;;;5.95;0.88;;;14.80;99.90;;;;;;5075579;28;20076;-80
2021/08/10 02:47:18;;;;;;;3.55;0.82;;;14.80;99.90;;;;;;5093659;28;20520;-80
2021/08/10 02:49:44;;;;;;;4.75;1.45;;;14.80;99.90;;;;;;5075447;28;20109;-76
2021/08/10 02:52:11;;;;;;;2.55;1.05;;;14.80;99.90;;;;;;5075435;28;20599;-77
2021/08/10 02:54:38;;;;;;;3.17;1.10;;;14.80;99.90;;;;;;5093689;28;20393;-80
2021/08/10 02:57:12;;;;;;;3.22;1.17;;;14.70;99.90;;;;;;5093742;28;20427;-80
2021/08/10 03:00:03;;;;;;;4.25;0.68;;;14.70;99.90;;;;;;5094717;28;20443;-78
2021/08/10 03:02:47;;;;;;;6.35;1.27;;;14.70;99.90;;;;;;5097718;28;20101;-78
2021/08/10 03:05:21;;;;;;;4.00;1.02;;;14.70;99.90;;;;;;5097081;28;20024;-77
2021/08/10 03:07:53;;;;;;;4.38;1.33;;;14.80;99.90;;;;;;5097535;28;20016;-80
2021/08/10 03:10:20;;;;;;;4.40;1.23;;;14.80;99.90;;;;;;5096748;28;20054;-76
2021/08/10 03:12:51;;;;;;;1.63;0.85;;;14.80;99.90;;;;;;5078338;28;20028;-76
2021/08/10 03:15:23;;;;;;;3.42;0.40;;;14.90;99.90;;;;;;5096820;28;20107;-78
2021/08/10 03:17:53;;;;;;;10.23;1.67;;;14.90;99.90;;;;;;5096773;28;20024;-78
2021/08/10 03:20:21;;;;;;;7.35;0.73;;;14.90;99.90;;;;;;5097151;28;20389;-80
2021/08/10 03:22:47;;;;;;;6.05;0.70;;;14.90;99.90;;;;;;5096783;28;20012;-78
2021/08/10 03:25:15;;;;;;;2.45;0.75;;;14.90;99.90;;;;;;5096579;28;20051;-78
2021/08/10 03:27:41;;;;;;;3.88;0.65;;;15.00;99.90;;;;;;5096975;28;20103;-78
2021/08/10 03:30:08;;;;;;;4.20;0.90;;;15.00;99.90;;;;;;5078833;28;20065;-79
2021/08/10 03:32:35;;;;;;;2.97;0.70;;;15.10;99.90;;;;;;5096707;28;20024;-76
2021/08/10 03:35:02;;;;;;;5.15;1.15;;;15.10;99.90;;;;;;5096200;28;20066;-76
2021/08/10 03:37:29;;;;;;;4.03;1.05;;;15.10;99.90;;;;;;5096109;28;20031;-78
2021/08/10 03:39:56;;;;;;;7.50;1.08;;;15.10;99.90;;;;;;5096401;28;20058;-78
2021/08/10 03:42:22;;;;;;;4.65;1.02;;;15.10;99.90;;;;;;5096449;28;20037;-78
2021/08/10 03:44:49;;;;;;;2.95;0.40;;;15.10;99.90;;;;;;5096259;28;20016;-79
2021/08/10 03:47:16;;;;;;;4.65;1.35;;;15.10;99.90;;;;;;5096317;28;20370;-78
2021/08/10 03:49:44;;;;;;;1.48;0.57;;;15.10;99.90;;;;;;5078268;28;20382;-76
2021/08/10 03:52:12;;;;;;;6.20;1.52;;;15.10;99.90;;;;;;5078112;28;20024;-76
2021/08/10 03:54:38;;;;;;;3.55;0.73;;;15.10;99.90;;;;;;5096210;28;20028;-76
2021/08/10 03:57:10;;;;;;;3.20;1.02;;;15.10;99.90;;;;;;5096207;28;20020;-77
2021/08/10 03:59:39;;;;;;;4.15;1.10;;;15.10;99.90;;;;;;5096032;28;20518;-77
2021/08/10 04:02:05;;;;;;;4.15;0.75;;;15.00;99.90;;;;;;5077986;28;20066;-78
2021/08/10 04:04:31;;;;;;;7.20;1.13;;;15.00;99.90;;;;;;5078024;28;20412;-78
2021/08/10 04:06:58;;;;;;;2.30;0.70;;;15.10;99.90;;;;;;5077994;28;20027;-80
2021/08/10 04:09:23;;;;;;;4.47;1.15;;;15.00;99.90;;;;;;5077732;28;20481;-80
2021/08/10 04:11:49;;;;;;;6.30;1.52;;;15.00;99.90;;;;;;5095122;28;20081;-78
2021/08/10 04:14:16;;;;;;;4.60;1.10;;;15.00;99.90;;;;;;5077443;28;20035;-78
2021/08/10 04:16:56;;;;;;;6.43;1.10;;;15.00;99.90;;;;;;5096479;28;20020;-77
2021/08/10 04:19:28;;;;;;;4.93;1.42;;;15.10;99.90;;;;;;5095830;28;20031;-76
2021/08/10 04:21:53;;;;;;;3.53;0.65;;;15.00;99.90;;;;;;5077696;28;20020;-78
2021/08/10 04:24:19;;;;;;;8.02;0.93;;;15.00;99.90;;;;;;5077271;28;20020;-76
2021/08/10 04:26:44;;;;;;;4.50;0.70;;;15.00;99.90;;;;;;5095353;28;20028;-76
2021/08/10 04:29:10;;;;;;;3.05;0.88;;;14.90;99.90;;;;;;5095235;28;20020;-78
2021/08/10 04:31:39;;;;;;;3.78;1.02;;;14.90;99.90;;;;;;5077694;28;20478;-77
2021/08/10 04:34:04;;;;;;;;;;;14.90;99.90;;;;;;5096335;28;20023;-78
2021/08/10 04:36:30;;;;;;;10.63;2.15;;;14.80;99.90;;;;;;5076989;28;19908;-77
2021/08/10 04:38:55;;;;;;;3.03;0.93;;;14.80;99.90;;;;;;5094950;28;20044;-77
2021/08/10 04:41:21;;;;;;;3.97;1.05;;;14.80;99.90;;;;;;5094754;28;20070;-77
2021/08/10 04:43:46;;;;;;;6.95;1.45;;;14.80;99.90;;;;;;5077072;28;20020;-78
2021/08/10 04:46:12;;;;;;;3.15;0.85;;;14.80;99.90;;;;;;5095320;28;20470;-78
2021/08/10 04:48:38;;;;;;;6.00;1.17;;;14.80;99.90;;;;;;5077138;28;20107;-78
2021/08/10 04:51:03;;;;;;;4.30;1.35;;;14.80;99.90;;;;;;5094797;28;20020;-78
2021/08/10 04:53:29;;;;;;;5.93;1.50;;;14.70;99.90;;;;;;5095214;28;20532;-77
2021/08/10 04:55:54;;;;;;;3.63;0.95;;;14.80;99.90;;;;;;5094555;28;20027;-77
2021/08/10 04:58:20;;;;;;;9.80;0.95;;;14.80;99.90;;;;;;5095228;28;20019;-77
2021/08/10 05:00:48;;;;;;;4.03;1.55;;;14.70;99.90;;;;;;5076538;28;20035;-78
2021/08/10 05:03:13;;;;;;;3.83;1.15;;;14.70;99.90;;;;;;5095256;28;20099;-78
2021/08/10 05:05:39;;;;;;;8.13;1.15;;;14.70;99.90;;;;;;5095678;28;20437;-78
2021/08/10 05:08:06;;;;;;;2.25;1.15;;;14.70;99.90;;;;;;5076285;28;20028;-76
2021/08/10 05:10:32;;;;;;;8.40;1.75;;;14.80;99.90;;;;;;5076141;28;20055;-76
2021/08/10 05:12:58;;;;;;;9.18;1.55;;;14.80;99.90;;;;;;5076863;28;20124;-78
2021/08/10 05:15:23;;;;;;;5.75;1.05;;;14.80;99.90;;;;;;5076614;28;20024;-78
2021/08/10 05:17:49;;;;;;;4.72;1.25;;;14.80;99.90;;;;;;5076399;28;20090;-78
2021/08/10 05:20:14;;;;;;;5.63;1.20;;;14.90;99.90;;;;;;5094182;28;20070;-76
2021/08/10 05:22:41;;;;;;;5.97;1.58;;;15.00;99.90;;;;;;5093687;28;20026;-77
2021/08/10 05:25:10;;;;;;;4.90;1.27;;;15.00;99.90;;;;;;5094364;28;20462;-77
2021/08/10 05:27:36;;;;;;;4.55;1.17;;;15.10;99.90;;;;;;5094082;28;20024;-78
2021/08/10 05:30:02;;;;;;;8.35;1.25;;;15.10;99.90;;;;;;5076334;28;20085;-79
2021/08/10 05:32:28;;;;;;;6.00;1.40;;;15.10;99.90;;;;;;5076013;28;20031;-76
2021/08/10 05:34:53;;;;;;;8.57;1.40;;;15.20;99.90;;;;;;5075781;28;20091;-77
2021/08/10 05:37:19;;;;;;;5.95;1.15;;;15.30;99.90;;;;;;5093854;28;20090;-77
2021/08/10 05:39:44;;;;;;;4.25;1.17;;;15.30;99.90;;;;;;5094668;28;20024;-80
2021/08/10 05:42:10;;;;;;;8.70;2.00;;;15.40;99.90;;;;;;5076637;28;20085;-76
2021/08/10 05:44:35;;;;;;;4.32;1.48;;;15.40;99.90;;;;;;5094722;28;20049;-80
2021/08/10 05:47:01;;;;;;;5.25;1.33;;;15.40;99.90;;;;;;5076385;28;20042;-78
2021/08/10 05:49:26;;;;;;;6.95;1.90;;;15.40;99.90;;;;;;5076059;28;20081;-78
2021/08/10 05:51:52;;;;;;;6.47;1.60;;;15.50;99.90;;;;;;5076107;28;20062;-77
2021/08/10 05:54:17;;;;;;;5.60;1.63;;;15.60;99.90;;;;;;5076307;28;20035;-78
2021/08/10 05:56:43;;;;;;;7.82;1.90;;;15.60;99.90;;;;;;5093718;28;20047;-78
2021/08/10 05:59:09;;;;;;;8.73;1.42;;;15.80;99.90;;;;;;5094474;28;20039;-78
2021/08/10 06:01:36;;;;;;;7.22;2.22;;;15.80;99.90;;;;;;5075649;28;20027;-76
2021/08/10 06:04:03;;;;;;;7.75;1.52;;;15.80;99.90;;;;;;5093722;28;20077;-77
2021/08/10 06:06:28;;;;;;;6.30;1.60;;;15.90;99.90;;;;;;5075280;28;20028;-77
2021/08/10 06:08:54;;;;;;;5.43;1.15;;;15.90;99.90;;;;;;5093407;28;20028;-76
2021/08/10 06:11:19;;;;;;;10.10;1.63;;;16.00;99.90;;;;;;5075646;28;20017;-80
2021/08/10 06:13:45;;;;;;;10.35;1.15;;;16.00;99.90;;;;;;5075812;28;20073;-80
2021/08/10 06:16:10;;;;;;;6.00;1.20;;;16.20;99.90;;;;;;5075644;28;20024;-80
2021/08/10 06:18:36;;;;;;;3.53;1.08;;;16.20;99.90;;;;;;5075756;28;20474;-80
2021/08/10 06:21:01;;;;;;;9.13;1.40;;;16.30;99.90;;;;;;5093577;28;20020;-80
2021/08/10 06:23:27;;;;;;;6.88;1.65;;;16.30;99.90;;;;;;5093829;28;20024;-78
2021/08/10 06:25:52;;;;;;;5.57;0.98;;;16.40;99.90;;;;;;5093797;28;20558;-78
2021/08/10 06:28:18;;;;;;;12.18;1.83;;;16.50;99.90;;;;;;5093508;28;20074;-78
2021/08/10 06:30:44;;;;;;;3.88;1.10;;;16.70;99.90;;;;;;5075352;28;20051;-76
2021/08/10 06:33:09;;;;;;;3.70;0.80;;;16.60;99.90;;;;;;5093671;28;20509;-76
2021/08/10 06:35:35;;;;;;;5.10;1.58;;;16.60;99.90;;;;;;5096120;28;20024;-78
2021/08/10 06:38:00;;;;;;;3.58;1.52;;;16.60;99.90;;;;;;5097594;28;20108;-76
2021/08/10 06:40:26;;;;;;;6.93;1.23;;;16.60;99.90;;;;;;5079891;28;20130;-80
2021/08/10 06:42:51;;;;;;;6.75;1.40;;;16.60;99.90;;;;;;5080488;28;20024;-79
2021/08/10 06:45:17;;;;;;;6.32;1.10;;;16.60;99.90;;;;;;5079511;28;20012;-76
2021/08/10 06:47:42;;;;;;;4.28;1.30;;;16.70;99.90;;;;;;5097613;28;20020;-77
2021/08/10 06:50:09;;;;;;;4.78;1.63;;;16.80;99.90;;;;;;5078831;28;20111;-77
2021/08/10 06:52:34;;;;;;;5.70;1.02;;;16.90;99.90;;;;;;5096903;28;20020;-77
2021/08/10 06:55:00;;;;;;;6.57;2.03;;;17.00;99.90;;;;;;5097328;28;20062;-76
2021/08/10 06:57:25;;;;;;;3.83;1.08;;;17.10;99.90;;;;;;5078907;28;20028;-78
2021/08/10 06:59:51;;;;;;;7.00;0.95;;;17.30;99.90;;;;;;5078659;28;20021;-77
2021/08/10 07:02:16;;;;;;;7.85;1.45;;;17.40;99.90;;;;;;5096871;28;20050;-77
2021/08/10 07:04:42;;;;;;;4.15;1.40;;;17.50;99.90;;;;;;5079119;28;20047;-77
2021/08/10 07:07:08;;;;;;;7.97;1.30;;;17.50;99.90;;;;;;5097131;28;20089;-76
2021/08/10 07:09:33;;;;;;;4.78;1.23;;;17.50;99.90;;;;;;5096595;28;20039;-76
2021/08/10 07:11:59;;;;;;;4.32;1.52;;;17.70;99.90;;;;;;5096514;28;20456;-76
2021/08/10 07:14:24;;;;;;;8.77;1.60;;;17.80;99.90;;;;;;5078992;28;20062;-80
2021/08/10 07:16:50;;;;;;;5.70;1.88;;;17.80;99.90;;;;;;5096639;28;20430;-78
2021/08/10 07:19:16;;;;;;;5.18;1.75;;;17.80;99.90;;;;;;5096698;28;20020;-78
2021/08/10 07:21:43;;;;;;;5.40;1.70;;;17.70;99.90;;;;;;5096593;28;20020;-77
2021/08/10 07:24:08;;;;;;;5.70;2.53;;;17.60;99.90;;;;;;5078330;28;20543;-77
2021/08/10 07:26:34;;;;;;;6.68;2.17;;;17.70;99.90;;;;;;5078290;28;20114;-78
2021/08/10 07:29:00;;;;;;;6.40;2.25;;;17.80;99.90;;;;;;5096376;28;20036;-77
2021/08/10 07:31:26;;;;;;;5.13;1.80;;;18.00;99.90;;;;;;5096173;28;20542;-77
2021/08/10 07:33:51;;;;;;;11.95;2.13;;;18.10;99.90;;;;;;5078315;28;20031;-78
2021/08/10 07:36:18;;;;;;;7.90;1.73;;;18.10;99.90;;;;;;5096154;28;20058;-77
2021/08/10 07:38:47;;;;;;;6.15;1.75;;;18.20;99.90;;;;;;5077908;28;20027;-77
2021/08/10 07:41:13;;;;;;;12.13;1.92;;;18.10;99.90;;;;;;5096433;28;20039;-77
2021/08/10 07:43:39;;;;;;;4.95;1.40;;;18.20;99.90;;;;;;5096474;28;20020;-78
2021/08/10 07:46:05;;;;;;;4.55;1.50;;;18.30;99.90;;;;;;5077109;28;20016;-75
2021/08/10 07:48:31;;;;;;;7.85;1.45;;;18.20;99.90;;;;;;5110059;22;20097;-78
2021/08/10 07:50:56;;;;;;;9.30;2.25;;;18.30;99.90;;;;;;5096232;28;20547;-78
2021/08/10 07:53:23;;;;;;;2.95;0.57;;;18.40;99.90;;;;;;5077949;28;20012;-78
2021/08/10 07:55:48;;;;;;;9.15;1.05;;;18.50;99.90;;;;;;5078279;28;20406;-78
2021/08/10 07:58:14;;;;;;;7.70;1.20;;;18.80;99.90;;;;;;5095848;28;20192;-77
2021/08/10 08:00:40;;;;;;;2.40;0.50;;;19.00;99.90;;;;;;5095615;28;20020;-77
2021/08/10 08:03:05;;;;;;;8.15;1.08;;;19.30;99.90;;;;;;5095818;28;20024;-77
2021/08/10 08:05:32;;;;;;;6.13;1.88;;;19.40;99.90;;;;;;5096618;28;20043;-77
2021/08/10 08:07:58;;;;;;;5.22;0.95;;;19.70;99.90;;;;;;5095946;28;20023;-79
2021/08/10 08:10:23;;;;;;;4.55;1.08;;;19.80;99.90;;;;;;5077697;28;20024;-77
2021/08/10 08:12:49;;;;;;;2.15;0.95;;;19.70;99.90;;;;;;5095526;28;20081;-77
2021/08/10 08:15:15;;;;;;;6.30;1.08;;;19.70;99.90;;;;;;5077277;28;20077;-76
2021/08/10 08:17:40;;;;;;;5.00;0.55;;;19.90;99.90;;;;;;5077026;28;20036;-77
2021/08/10 08:20:06;;;;;;;3.58;0.65;;;20.10;99.90;;;;;;5077209;28;20016;-76
2021/08/10 08:22:32;;;;;;;8.13;0.82;;;20.00;99.90;;;;;;5095185;28;20024;-77
2021/08/10 08:24:58;;;;;;;6.60;1.60;;;19.90;99.90;;;;;;5095442;28;20034;-76
2021/08/10 08:27:23;;;;;;;4.82;0.93;;;19.90;99.90;;;;;;5095204;28;20540;-77
2021/08/10 08:29:49;;;;;;;5.88;0.77;;;19.90;99.90;;;;;;5095424;28;20030;-79
2021/08/10 08:32:14;;;;;;;5.90;1.10;;;19.70;99.90;;;;;;5095814;28;20386;-78
2021/08/10 08:34:40;;;;;;;4.47;0.65;;;19.60;99.90;;;;;;5095338;28;20024;-78
2021/08/10 08:37:05;;;;;;;4.65;0.40;;;19.50;99.90;;;;;;5095023;28;20024;-77
2021/08/10 08:39:32;;;;;;;5.15;0.60;;;19.30;99.90;;;;;;5095112;28;20059;-77
2021/08/10 08:42:01;;;;;;;6.72;1.10;;;19.10;99.90;;;;;;5095081;28;20495;-77
2021/08/10 08:44:58;;;;;;;3.63;0.60;;;18.70;99.90;;;;;;5095268;28;20377;-78
2021/08/10 08:47:23;;;;;;;4.15;0.63;;;18.60;99.90;;;;;;5095669;28;20024;-78
2021/08/10 08:49:52;;;;;;;2.15;0.60;;;18.50;99.90;;;;;;5095487;28;20103;-79
2021/08/10 08:52:18;;;;;;;2.97;0.65;;;18.60;99.90;;;;;;5095151;28;20031;-78
2021/08/10 08:54:44;;;;;;;2.85;0.30;;;18.80;99.90;;;;;;5076936;28;20481;-77
2021/08/10 08:57:10;;;;;;;2.58;0.28;;;18.90;99.90;;;;;;5076382;28;20024;-77
2021/08/10 08:59:40;;;;;;;2.42;0.30;;;19.00;99.90;;;;;;5076716;28;20031;-77
2021/08/10 09:02:17;;;;;;;1.27;0.30;;;19.10;99.90;;;;;;5076541;28;20439;-77
2021/08/10 09:04:44;;;;;;;1.55;0.20;;;19.00;99.90;;;;;;5095070;28;20389;-77
2021/08/10 09:07:10;;;;;;;1.45;0.40;;;18.90;99.90;;;;;;5094735;28;20052;-78
2021/08/10 09:09:36;;;;;;;4.65;0.65;;;18.90;99.90;;;;;;5095105;28;20020;-78
2021/08/10 09:12:17;;;;;;;2.00;0.17;;;18.70;99.90;;;;;;5094977;28;20110;-78
2021/08/10 09:14:51;;;;;;;4.88;0.30;;;18.70;99.90;;;;;;5094563;28;20024;-78
2021/08/10 09:17:19;;;;;;;4.47;0.30;;;18.50;99.90;;;;;;5094935;28;20382;-78
2021/08/10 09:19:52;;;;;;;2.92;0.45;;;18.40;99.90;;;;;;5094764;28;20477;-78
2021/08/10 09:22:32;;;;;;;4.10;0.45;;;18.30;99.90;;;;;;5094688;28;20016;-78
2021/08/10 09:25:01;;;;;;;6.38;1.27;;;18.20;99.90;;;;;;5094302;28;20027;-76
2021/08/10 09:27:38;;;;;;;4.18;0.88;;;18.00;99.90;;;;;;5094018;28;20133;-76
2021/08/10 09:30:08;;;;;;;4.95;1.35;;;17.80;99.90;;;;;;5075878;28;20024;-77
2021/08/10 09:32:34;;;;;;;4.95;0.40;;;17.70;99.90;;;;;;5094271;28;20024;-77
2021/08/10 09:35:16;;;;;;;2.08;0.20;;;17.20;99.90;;;;;;5075851;28;20028;-77
2021/08/10 09:37:42;;;;;;;3.05;0.35;;;16.90;99.90;;;;;;5093929;28;20030;-76
2021/08/10 09:40:32;;;;;;;6.05;0.88;;;16.80;99.90;;;;;;5093783;28;20024;-76
2021/08/10 09:43:33;;;;;;;2.90;0.50;;;16.50;99.90;;;;;;5094218;28;20028;-76
2021/08/10 09:46:19;;;;;;;1.45;0.50;;;16.40;99.90;;;;;;5093878;28;20410;-77
2021/08/10 09:48:54;;;;;;;1.85;0.57;;;16.30;99.90;;;;;;5094059;28;20035;-76
2021/08/10 09:51:22;;;;;;;4.75;0.43;;;16.20;99.90;;;;;;5076498;28;20039;-80
2021/08/10 09:54:02;;;;;;;4.82;1.52;;;16.30;99.90;;;;;;5094412;28;20012;-80
2021/08/10 09:56:43;;;;;;;2.88;0.50;;;16.20;99.90;;;;;;5076283;28;20089;-80
2021/08/10 09:59:08;;;;;;;4.13;0.80;;;16.20;99.90;;;;;;5094764;28;20020;-80
2021/08/10 10:01:38;;;;;;;3.15;0.85;;;16.20;99.90;;;;;;5094428;28;20540;-80
2021/08/10 10:04:28;;;;;;;3.30;0.68;;;16.30;99.90;;;;;;5075909;28;20024;-76
2021/08/10 10:06:56;;;;;;;2.88;1.10;;;16.50;99.90;;;;;;5084231;28;20032;-76
2021/08/10 10:09:25;;;;;;;1.50;1.10;;;16.60;99.90;;;;;;5093243;28;20024;-77
2021/08/10 10:11:52;;;;;;;6.03;1.77;;;16.80;99.90;;;;;;5075236;28;20051;-76
2021/08/10 10:14:19;;;;;;;7.05;2.00;;;17.00;99.90;;;;;;5107554;22;20035;-79
2021/08/10 10:16:50;;;;;;;9.85;2.28;;;17.30;99.90;;;;;;5075150;28;20055;-80
2021/08/10 10:19:17;;;;;;;3.70;2.03;;;17.70;99.90;;;;;;5095175;28;20024;-78
2021/08/10 10:21:52;;;;;;;6.07;2.10;;;18.10;99.90;;;;;;5094077;28;20024;-77
2021/08/10 10:24:20;;;;;;;3.47;1.33;;;18.50;99.90;;;;;;5093991;28;20481;-77
2021/08/10 10:26:53;;;;;;;3.78;1.10;;;18.70;99.90;;;;;;5075411;28;20024;-77
2021/08/10 10:29:19;;;;;;;6.75;1.67;;;18.60;99.90;;;;;;5093980;28;20032;-77
2021/08/10 10:31:45;;;;;;;3.90;1.42;;;18.50;99.90;;;;;;5093370;28;20069;-78
2021/08/10 10:34:13;;;;;;;4.35;1.55;;;18.50;99.90;;;;;;5075163;28;20032;-77
2021/08/10 10:36:46;;;;;;;13.25;1.88;;;18.70;99.90;;;;;;5093279;28;20031;-77
2021/08/10 10:39:14;;;;;;;6.80;1.52;;;19.00;99.90;;;;;;5093261;28;20485;-78
2021/08/10 10:41:41;;;;;;;8.40;2.53;;;19.20;99.90;;;;;;5075957;28;20059;-78
2021/08/10 10:44:07;;;;;;;5.43;1.60;;;19.30;99.90;;;;;;5093151;28;20020;-76
2021/08/10 10:46:38;;;;;;;3.40;2.03;;;19.40;99.90;;;;;;5093037;28;20111;-76
2021/08/10 10:49:06;;;;;;;5.18;1.42;;;19.30;99.90;;;;;;5093160;28;20024;-77
2021/08/10 10:51:37;;;;;;;4.87;1.53;;;19.20;99.90;;;;;;5074990;28;20024;-77
2021/08/10 10:54:27;;;;;;;5.03;2.10;;;19.20;99.90;;;;;;5093135;28;20477;-77
2021/08/10 10:56:58;;;;;;;2.00;1.27;;;19.30;99.90;;;;;;5092898;28;20027;-77
2021/08/10 10:59:27;;;;;;;4.57;2.20;;;19.40;99.90;;;;;;5093657;28;20397;-78
2021/08/10 11:02:10;;;;;;;5.50;1.33;;;19.50;99.90;;;;;;5093190;28;20017;-78
2021/08/10 11:04:35;;;;;;;6.38;1.58;;;19.60;99.90;;;;;;5093211;28;20016;-76
2021/08/10 11:07:37;;;;;;;4.80;1.38;;;19.60;99.90;;;;;;5092811;28;20025;-76
2021/08/10 11:10:11;;;;;;;4.32;1.55;;;19.50;99.90;;;;;;5092923;28;20393;-76
2021/08/10 11:12:47;;;;;;;4.63;1.10;;;19.60;99.90;;;;;;5074774;28;20036;-77
2021/08/10 11:15:17;;;;;;;2.90;0.70;;;19.50;99.90;;;;;;5093147;28;20031;-77
2021/08/10 11:18:07;;;;;;;2.10;1.10;;;19.60;99.90;;;;;;5074611;28;20393;-77
2021/08/10 11:20:34;;;;;;;7.50;1.17;;;19.60;99.90;;;;;;5074722;28;20052;-78
2021/08/10 11:26:00;;;;;;;4.72;0.73;;;19.60;99.90;;;;;;5097099;28;20071;-78
2021/08/10 11:28:34;;;;;;;3.40;1.15;;;19.70;99.90;;;;;;5078811;28;20445;-78
2021/08/10 11:31:01;;;;;;;2.90;0.47;;;19.60;99.90;;;;;;5078609;28;20487;-78
2021/08/10 11:33:30;;;;;;;1.50;0.47;;;19.70;99.90;;;;;;5096686;28;20028;-78
2021/08/10 11:36:24;;;;;;;4.05;0.35;;;19.50;99.90;;;;;;5096766;28;20032;-78
2021/08/10 11:38:51;;;;;;;2.55;0.73;;;19.30;99.90;;;;;;5096616;28;20062;-78
2021/08/10 11:41:38;;;;;;;3.95;0.50;;;19.20;99.90;;;;;;5097402;28;20028;-78
2021/08/10 11:44:17;;;;;;;5.70;0.90;;;19.20;99.90;;;;;;5078857;28;20435;-78
2021/08/10 11:46:44;;;;;;;6.55;0.90;;;19.40;99.90;;;;;;5078741;28;20020;-78
2021/08/10 11:49:14;;;;;;;3.03;0.75;;;19.20;99.90;;;;;;5096952;28;20090;-77
2021/08/10 11:51:43;;;;;;;3.10;0.52;;;19.10;99.90;;;;;;5096235;28;20066;-78
2021/08/10 11:54:13;;;;;;;3.08;0.75;;;19.10;99.90;;;;;;5096549;28;20094;-76
2021/08/10 11:56:41;;;;;;;2.47;0.90;;;19.10;99.90;;;;;;5095782;28;20094;-77
2021/08/10 11:59:13;;;;;;;5.93;0.65;;;19.10;99.90;;;;;;5095876;28;20027;-78
2021/08/10 12:01:39;;;;;;;1.25;0.40;;;19.00;99.90;;;;;;5096571;28;20030;-76
2021/08/10 12:04:19;;;;;;;3.67;0.57;;;19.10;99.90;;;;;;5095603;28;20020;-76
2021/08/10 12:06:56;;;;;;;3.63;0.50;;;19.60;99.90;;;;;;5095859;28;20028;-77
2021/08/10 12:09:25;;;;;;;7.53;0.55;;;20.30;99.90;;;;;;5095938;28;20032;-77
2021/08/10 12:11:53;;;;;;;5.03;0.57;;;21.00;99.90;;;;;;5096029;28;20032;-77
2021/08/10 12:14:22;;;;;;;3.03;0.65;;;21.60;99.90;;;;;;5095978;28;20111;-78
2021/08/10 12:16:57;;;;;;;;;;;21.80;99.90;;;;;;5096634;28;20028;-77
2021/08/10 12:19:43;;;;;;;4.15;0.30;;;22.10;99.90;;;;;;5077351;28;19911;-76
2021/08/10 12:22:09;;;;;;;4.07;1.13;;;22.50;99.90;;;;;;5095241;28;20031;-76
2021/08/10 12:24:38;;;;;;;9.30;1.27;;;22.90;99.90;;;;;;5077401;28;20541;-77
2021/08/10 12:27:05;;;;;;;4.78;0.40;;;23.20;99.90;;;;;;5095342;28;20445;-77
2021/08/10 12:29:48;;;;;;;4.43;0.60;;;23.60;99.90;;;;;;5077047;28;20023;-76
2021/08/10 12:32:25;;;;;;;2.30;0.10;;;23.80;99.90;;;;;;5095036;28;20051;-77
2021/08/10 12:34:51;;;;;;;3.05;0.93;;;23.70;99.90;;;;;;5095226;28;20059;-77
2021/08/10 12:37:26;;;;;;;1.98;0.85;;;23.70;99.90;;;;;;5077104;28;20024;-77
2021/08/10 12:39:52;;;;;;;1.40;0.20;;;23.90;99.90;;;;;;5095132;28;20031;-77
2021/08/10 12:42:18;;;;;;;1.58;0.10;;;23.90;99.90;;;;;;5095237;28;20428;-77
2021/08/10 12:44:44;;;;;;;4.28;0.70;;;24.00;99.90;;;;;;5076852;28;20074;-76
2021/08/10 12:47:12;;;;;;;2.90;0.77;;;24.20;99.90;;;;;;5077096;28;20032;-79
2021/08/10 12:49:44;;;;;;;2.57;0.40;;;24.60;99.90;;;;;;5095295;28;20016;-79
2021/08/10 12:52:11;;;;;;;2.00;0.30;;;24.40;95.00;;;;;;5095350;28;20031;-79
2021/08/10 12:54:58;;;;;;;1.60;0.52;;;24.50;99.90;;;;;;5077348;28;20074;-79
2021/08/10 12:57:26;;;;;;;2.05;0.50;;;24.80;99.90;;;;;;5094899;28;20016;-77
2021/08/10 12:59:57;;;;;;;1.40;0.52;;;25.10;99.90;;;;;;5076567;28;20076;-77
2021/08/10 13:02:52;;;;;;;2.22;0.52;;;25.30;99.90;;;;;;5095309;28;20120;-77